createdAt,value
2018-09-28T00:00:36.113Z,99.90
2018-09-28T00:03:05.223Z,99.90
2018-09-28T00:05:34.872Z,99.90
2018-09-28T00:08:03.958Z,99.90
2018-09-28T00:10:33.062Z,99.90
2018-09-28T00:13:02.121Z,99.90
2018-09-28T00:15:31.186Z,99.90
2018-09-28T00:18:00.282Z,99.90
2018-09-28T00:20:29.342Z,99.90
2018-09-28T00:22:58.448Z,99.90
2018-09-28T00:25:27.514Z,99.90
2018-09-28T00:27:56.709Z,99.90
2018-09-28T00:30:25.788Z,99.90
2018-09-28T00:32:54.952Z,99.90
2018-09-28T00:35:24.040Z,99.90
2018-09-28T00:37:53.256Z,99.90
2018-09-28T00:40:23.352Z,99.90
2018-09-28T00:42:52.441Z,99.90
2018-09-28T00:45:21.502Z,99.90
2018-09-28T00:47:50.588Z,99.90
2018-09-28T00:50:19.686Z,99.90
2018-09-28T00:52:48.764Z,99.90
2018-09-28T00:55:18.000Z,99.90
2018-09-28T00:57:47.090Z,99.90
2018-09-28T01:00:16.255Z,99.90
2018-09-28T01:02:45.474Z,99.90
2018-09-28T01:05:14.558Z,99.90
2018-09-28T01:07:43.624Z,99.90
2018-09-28T01:10:12.690Z,99.90
2018-09-28T01:12:41.767Z,99.90
2018-09-28T01:15:10.882Z,99.90
2018-09-28T01:17:39.972Z,99.90
2018-09-28T01:20:09.347Z,99.90
2018-09-28T01:22:38.408Z,99.90
2018-09-28T01:25:07.516Z,99.90
2018-09-28T01:27:36.582Z,99.90
2018-09-28T01:30:05.851Z,99.90
2018-09-28T01:32:34.918Z,99.90
2018-09-28T01:35:04.024Z,99.90
2018-09-28T01:37:33.132Z,99.90
2018-09-28T01:40:02.223Z,99.90
2018-09-28T01:42:31.306Z,99.90
2018-09-28T01:45:00.390Z,99.90
2018-09-28T01:47:29.478Z,99.90
2018-09-28T01:49:58.590Z,99.90
2018-09-28T01:52:27.675Z,99.90
2018-09-28T01:54:56.744Z,99.90
2018-09-28T01:57:25.832Z,99.90
2018-09-28T01:59:55.214Z,99.90
2018-09-28T02:02:24.326Z,99.90
2018-09-28T02:04:53.514Z,99.90
2018-09-28T02:07:22.632Z,99.90
2018-09-28T02:09:51.728Z,99.90
2018-09-28T02:12:20.813Z,99.90
2018-09-28T02:14:49.896Z,99.90
2018-09-28T02:17:18.985Z,99.90
2018-09-28T02:19:48.098Z,99.90
2018-09-28T02:22:17.178Z,99.90
2018-09-28T02:24:46.260Z,99.90
2018-09-28T02:27:15.926Z,99.90
2018-09-28T02:29:44.999Z,99.90
2018-09-28T02:32:14.096Z,99.90
2018-09-28T02:34:43.194Z,99.90
2018-09-28T02:37:12.294Z,99.90
2018-09-28T02:39:41.370Z,99.90
2018-09-28T02:42:10.484Z,99.90
2018-09-28T02:44:39.601Z,99.90
2018-09-28T02:47:08.666Z,99.90
2018-09-28T02:49:37.744Z,99.90
2018-09-28T02:52:06.980Z,99.90
2018-09-28T02:54:36.062Z,99.90
2018-09-28T02:57:05.220Z,99.90
2018-09-28T02:59:34.226Z,99.90
2018-09-28T03:02:03.528Z,99.90
2018-09-28T03:04:32.688Z,99.90
2018-09-28T03:07:01.933Z,99.90
2018-09-28T03:09:31.024Z,99.90
2018-09-28T03:12:00.110Z,99.90
2018-09-28T03:14:29.222Z,99.90
2018-09-28T03:16:58.318Z,99.90
2018-09-28T03:19:27.539Z,99.90
2018-09-28T03:21:56.608Z,99.90
2018-09-28T03:24:25.758Z,99.90
2018-09-28T03:26:54.874Z,99.90
2018-09-28T03:29:23.953Z,99.90
2018-09-28T03:31:53.031Z,99.90
2018-09-28T03:34:22.179Z,99.90
2018-09-28T03:36:51.248Z,99.90
2018-09-28T03:39:20.363Z,99.90
2018-09-28T03:41:49.487Z,99.90
2018-09-28T03:44:18.576Z,99.90
2018-09-28T03:46:47.669Z,99.90
2018-09-28T03:49:16.750Z,99.90
2018-09-28T03:51:45.800Z,99.90
2018-09-28T03:54:14.876Z,99.90
2018-09-28T03:56:43.936Z,99.90
2018-09-28T03:59:13.037Z,99.90
2018-09-28T04:01:42.124Z,99.90
2018-09-28T04:04:11.217Z,99.90
2018-09-28T04:06:41.349Z,99.90
2018-09-28T04:09:11.709Z,99.90
2018-09-28T04:11:40.807Z,99.90
2018-09-28T04:14:09.905Z,99.90
2018-09-28T04:16:39.918Z,99.90
2018-09-28T04:19:09.041Z,99.90
2018-09-28T04:21:38.108Z,99.90
2018-09-28T04:24:07.323Z,99.90
2018-09-28T04:26:37.649Z,99.90
2018-09-28T04:29:06.787Z,99.90
2018-09-28T04:31:35.881Z,99.90
2018-09-28T04:34:04.965Z,99.90
2018-09-28T04:36:34.049Z,99.90
2018-09-28T04:39:03.913Z,99.90
2018-09-28T04:41:32.979Z,99.90
2018-09-28T04:44:02.118Z,99.90
2018-09-28T04:46:31.217Z,99.90
2018-09-28T04:49:00.354Z,99.90
2018-09-28T04:51:29.486Z,99.90
2018-09-28T04:53:58.601Z,99.90
2018-09-28T04:56:27.695Z,99.90
2018-09-28T04:58:56.772Z,99.90
2018-09-28T05:01:25.856Z,99.90
2018-09-28T05:03:54.953Z,99.90
2018-09-28T05:06:24.247Z,99.90
2018-09-28T05:08:53.343Z,99.90
2018-09-28T05:11:22.605Z,99.90
2018-09-28T05:13:51.717Z,99.90
2018-09-28T05:16:21.473Z,99.90
2018-09-28T05:18:50.541Z,99.90
2018-09-28T05:21:19.673Z,99.90
2018-09-28T05:23:48.763Z,99.90
2018-09-28T05:26:17.847Z,99.90
2018-09-28T05:28:46.981Z,99.90
2018-09-28T05:31:16.104Z,99.90
2018-09-28T05:33:45.161Z,99.90
2018-09-28T05:36:14.301Z,99.90
2018-09-28T05:38:43.397Z,99.90
2018-09-28T05:41:12.473Z,99.90
2018-09-28T05:43:41.581Z,99.90
2018-09-28T05:46:10.735Z,99.90
2018-09-28T05:48:39.945Z,99.90
2018-09-28T05:51:09.028Z,99.90
2018-09-28T05:53:39.335Z,99.90
2018-09-28T05:56:08.439Z,99.90
2018-09-28T05:58:42.878Z,99.90
2018-09-28T06:01:17.153Z,99.90
2018-09-28T06:03:51.587Z,99.90
2018-09-28T06:06:20.701Z,99.90
2018-09-28T06:08:49.819Z,99.90
2018-09-28T06:11:18.897Z,99.90
2018-09-28T06:13:48.329Z,99.90
2018-09-28T06:16:17.404Z,99.90
2018-09-28T06:18:47.072Z,99.90
2018-09-28T06:21:16.180Z,99.90
2018-09-28T06:23:45.271Z,99.90
2018-09-28T06:26:14.341Z,99.90
2018-09-28T06:28:43.813Z,99.90
2018-09-28T06:31:12.908Z,99.90
2018-09-28T06:33:42.033Z,99.90
2018-09-28T06:36:11.161Z,99.90
2018-09-28T06:38:40.224Z,99.90
2018-09-28T06:41:09.327Z,99.90
2018-09-28T06:43:38.430Z,99.90
2018-09-28T06:46:08.236Z,99.90
2018-09-28T06:48:37.353Z,99.90
2018-09-28T06:51:06.479Z,99.90
2018-09-28T06:53:35.719Z,99.90
2018-09-28T06:56:04.793Z,99.90
2018-09-28T06:58:33.895Z,99.90
2018-09-28T07:01:03.009Z,99.90
2018-09-28T07:03:32.103Z,99.90
2018-09-28T07:06:01.198Z,99.90
2018-09-28T07:08:30.699Z,99.90
2018-09-28T07:10:59.795Z,99.90
2018-09-28T07:13:28.970Z,99.90
2018-09-28T07:15:58.385Z,99.90
2018-09-28T07:18:27.467Z,99.90
2018-09-28T07:20:56.579Z,99.90
2018-09-28T07:23:25.770Z,99.90
2018-09-28T07:25:54.854Z,99.90
2018-09-28T07:28:23.976Z,99.90
2018-09-28T07:30:53.049Z,99.90
2018-09-28T07:33:22.833Z,99.90
2018-09-28T07:35:52.161Z,99.90
2018-09-28T07:38:21.174Z,99.90
2018-09-28T07:40:50.243Z,99.90
2018-09-28T07:43:19.311Z,99.90
2018-09-28T07:45:48.421Z,99.90
2018-09-28T07:48:17.526Z,99.90
2018-09-28T07:50:46.532Z,99.90
2018-09-28T07:53:15.729Z,99.90
2018-09-28T07:55:44.818Z,99.90
2018-09-28T07:58:13.898Z,99.90
2018-09-28T08:00:42.957Z,99.90
2018-09-28T08:03:12.049Z,99.90
2018-09-28T08:05:41.141Z,99.90
2018-09-28T08:08:10.213Z,99.90
2018-09-28T08:10:39.297Z,99.90
2018-09-28T08:13:08.422Z,99.90
2018-09-28T08:15:37.525Z,99.90
2018-09-28T08:18:06.477Z,99.90
2018-09-28T08:20:35.576Z,99.90
2018-09-28T08:23:04.670Z,99.90
2018-09-28T08:25:33.795Z,99.90
2018-09-28T08:28:02.873Z,99.90
2018-09-28T08:30:32.528Z,99.90
2018-09-28T08:33:01.573Z,99.90
2018-09-28T08:35:30.713Z,99.90
2018-09-28T08:37:59.853Z,99.90
2018-09-28T08:40:28.985Z,99.90
2018-09-28T08:42:58.061Z,99.90
2018-09-28T08:45:27.163Z,99.90
2018-09-28T08:47:56.233Z,99.90
2018-09-28T08:50:25.373Z,99.90
2018-09-28T08:52:54.501Z,99.90
2018-09-28T08:55:23.588Z,99.90
2018-09-28T08:57:53.023Z,99.90
2018-09-28T09:00:22.583Z,99.90
2018-09-28T09:02:51.673Z,99.90
2018-09-28T09:05:20.756Z,99.90
2018-09-28T09:07:49.849Z,99.90
2018-09-28T09:10:18.953Z,99.90
2018-09-28T09:12:48.054Z,99.90
2018-09-28T09:15:17.135Z,99.90
2018-09-28T09:17:46.303Z,99.90
2018-09-28T09:20:15.501Z,99.90
2018-09-28T09:22:44.578Z,99.90
2018-09-28T09:25:13.653Z,99.90
2018-09-28T09:27:42.729Z,99.90
2018-09-28T09:30:12.333Z,99.90
2018-09-28T09:32:41.405Z,99.90
2018-09-28T09:35:10.485Z,99.90
2018-09-28T09:37:39.553Z,99.90
2018-09-28T09:40:08.647Z,99.90
2018-09-28T09:42:37.744Z,99.90
2018-09-28T09:45:06.830Z,99.90
2018-09-28T09:47:35.933Z,99.90
2018-09-28T09:50:05.079Z,99.90
2018-09-28T09:52:34.127Z,99.90
2018-09-28T09:55:03.312Z,99.90
2018-09-28T09:57:32.412Z,99.90
2018-09-28T10:00:01.524Z,99.90
2018-09-28T10:02:35.857Z,99.90
2018-09-28T10:05:05.148Z,99.90
2018-09-28T10:07:34.229Z,99.90
2018-09-28T10:10:03.542Z,99.90
2018-09-28T10:12:32.811Z,99.90
2018-09-28T10:15:01.793Z,99.90
2018-09-28T10:17:31.050Z,99.90
2018-09-28T10:20:00.128Z,99.90
2018-09-28T10:22:29.293Z,99.90
2018-09-28T10:24:58.380Z,99.90
2018-09-28T10:27:27.543Z,99.90
2018-09-28T10:29:56.808Z,99.90
2018-09-28T10:32:25.879Z,99.90
2018-09-28T10:34:55.427Z,99.90
2018-09-28T10:37:24.525Z,99.90
2018-09-28T10:39:53.674Z,99.90
2018-09-28T10:42:22.791Z,99.90
2018-09-28T10:44:51.871Z,99.90
2018-09-28T10:47:20.962Z,99.90
2018-09-28T10:49:50.019Z,99.90
2018-09-28T10:52:19.276Z,99.90
2018-09-28T10:54:48.150Z,99.90
2018-09-28T10:57:17.290Z,99.60
2018-09-28T10:59:46.309Z,98.30
2018-09-28T11:02:15.367Z,96.90
2018-09-28T11:04:44.475Z,93.90
2018-09-28T11:07:13.502Z,92.30
2018-09-28T11:09:42.595Z,86.30
2018-09-28T11:12:12.381Z,83.90
2018-09-28T11:14:41.718Z,78.30
2018-09-28T11:17:10.789Z,71.90
2018-09-28T11:19:39.855Z,67.60
2018-09-28T11:22:08.957Z,69.30
2018-09-28T11:24:38.539Z,69.20
2018-09-28T11:27:07.665Z,67.30
2018-09-28T11:29:36.720Z,67.60
2018-09-28T11:32:05.788Z,65.70
2018-09-28T11:34:34.875Z,69.00
2018-09-28T11:37:03.976Z,71.80
2018-09-28T11:39:33.062Z,68.60
2018-09-28T11:42:02.143Z,68.20
2018-09-28T11:44:31.216Z,65.10
2018-09-28T11:47:00.932Z,65.10
2018-09-28T11:49:30.124Z,63.10
2018-09-28T11:51:59.931Z,63.20
2018-09-28T11:54:29.027Z,63.00
2018-09-28T11:56:58.100Z,64.10
2018-09-28T11:59:27.185Z,63.70
2018-09-28T12:01:56.347Z,64.30
2018-09-28T12:04:25.424Z,62.10
2018-09-28T12:06:54.676Z,61.00
2018-09-28T12:09:23.648Z,60.90
2018-09-28T12:11:52.668Z,59.40
2018-09-28T12:14:21.756Z,59.30
2018-09-28T12:16:50.831Z,59.30
2018-09-28T12:19:19.901Z,61.10
2018-09-28T12:21:49.068Z,61.00
2018-09-28T12:24:18.093Z,60.30
2018-09-28T12:26:47.317Z,59.60
2018-09-28T12:29:16.390Z,57.50
2018-09-28T12:31:45.467Z,58.00
2018-09-28T12:34:15.245Z,57.90
2018-09-28T12:36:44.431Z,57.50
2018-09-28T12:39:13.509Z,56.30
2018-09-28T12:41:43.133Z,55.00
2018-09-28T12:44:12.220Z,53.90
2018-09-28T12:46:41.261Z,55.00
2018-09-28T12:49:10.345Z,55.10
2018-09-28T12:51:39.410Z,54.40
2018-09-28T12:54:08.615Z,54.50
2018-09-28T12:56:37.779Z,56.70
2018-09-28T12:59:07.897Z,57.60
2018-09-28T13:01:37.058Z,59.10
2018-09-28T13:04:06.211Z,60.30
2018-09-28T13:06:35.898Z,62.50
2018-09-28T13:09:06.710Z,64.10
2018-09-28T13:11:35.802Z,65.00
2018-09-28T13:14:04.893Z,66.10
2018-09-28T13:16:33.999Z,66.10
2018-09-28T13:19:03.069Z,66.70
2018-09-28T13:21:32.257Z,66.70
2018-09-28T13:24:01.382Z,67.00
2018-09-28T13:26:30.503Z,67.00
2018-09-28T13:28:59.820Z,64.30
2018-09-28T13:31:28.904Z,64.40
2018-09-28T13:33:58.015Z,64.90
2018-09-28T13:36:27.205Z,66.80
2018-09-28T13:38:56.740Z,68.90
2018-09-28T13:41:25.905Z,69.20
2018-09-28T13:43:55.083Z,69.40
2018-09-28T13:46:24.344Z,69.20
2018-09-28T13:48:53.596Z,68.70
2018-09-28T13:51:22.627Z,69.80
2018-09-28T13:53:51.749Z,70.90
2018-09-28T13:56:20.856Z,72.20
2018-09-28T13:58:50.118Z,73.00
2018-09-28T14:01:19.214Z,73.70
2018-09-28T14:03:48.308Z,71.80
2018-09-28T14:06:17.510Z,69.50
2018-09-28T14:08:46.618Z,65.10
2018-09-28T14:11:15.663Z,64.30
2018-09-28T14:13:44.740Z,65.70
2018-09-28T14:16:13.891Z,65.40
2018-09-28T14:18:42.960Z,65.60
2018-09-28T14:21:12.162Z,65.80
2018-09-28T14:23:41.282Z,68.30
2018-09-28T14:26:10.390Z,70.90
2018-09-28T14:28:39.549Z,72.20
2018-09-28T14:31:08.583Z,73.90
2018-09-28T14:33:37.782Z,71.10
2018-09-28T14:36:06.891Z,69.30
2018-09-28T14:38:35.968Z,67.50
2018-09-28T14:41:05.122Z,67.00
2018-09-28T14:43:34.220Z,70.50
2018-09-28T14:46:03.336Z,71.30
2018-09-28T14:48:32.542Z,66.80
2018-09-28T14:51:01.558Z,67.20
2018-09-28T14:53:30.722Z,65.70
2018-09-28T14:55:59.836Z,65.60
2018-09-28T14:58:28.922Z,64.00
2018-09-28T15:00:58.099Z,63.90
2018-09-28T15:03:27.057Z,64.80
2018-09-28T15:05:56.131Z,66.30
2018-09-28T15:08:25.322Z,63.10
2018-09-28T15:10:54.337Z,64.20
2018-09-28T15:13:24.147Z,64.10
2018-09-28T15:15:53.227Z,63.60
2018-09-28T15:18:22.433Z,63.70
2018-09-28T15:20:51.498Z,63.60
2018-09-28T15:23:20.963Z,64.10
2018-09-28T15:25:50.048Z,63.90
2018-09-28T15:28:19.508Z,63.90
2018-09-28T15:30:48.594Z,65.60
2018-09-28T15:33:17.678Z,64.80
2018-09-28T15:35:46.844Z,65.90
2018-09-28T15:38:15.923Z,65.40
2018-09-28T15:40:44.986Z,64.60
2018-09-28T15:43:14.083Z,64.50
2018-09-28T15:45:43.290Z,65.40
2018-09-28T15:48:12.862Z,64.50
2018-09-28T15:50:41.958Z,65.00
2018-09-28T15:53:11.049Z,65.40
2018-09-28T15:55:40.174Z,65.20
2018-09-28T15:58:09.266Z,64.70
2018-09-28T16:00:38.342Z,65.40
2018-09-28T16:03:07.494Z,66.90
2018-09-28T16:05:36.559Z,66.60
2018-09-28T16:08:05.648Z,67.30
2018-09-28T16:10:34.743Z,67.60
2018-09-28T16:13:03.817Z,69.90
2018-09-28T16:15:33.666Z,68.50
2018-09-28T16:18:02.750Z,68.40
2018-09-28T16:20:31.939Z,68.70
2018-09-28T16:23:01.158Z,70.10
2018-09-28T16:25:30.615Z,68.60
2018-09-28T16:27:59.789Z,67.40
2018-09-28T16:30:29.235Z,68.80
2018-09-28T16:32:58.804Z,67.80
2018-09-28T16:35:27.928Z,67.40
2018-09-28T16:37:57.016Z,65.60
2018-09-28T16:40:26.104Z,65.60
2018-09-28T16:42:55.198Z,66.30
2018-09-28T16:45:24.312Z,67.10
2018-09-28T16:47:53.420Z,67.60
2018-09-28T16:50:22.516Z,69.30
2018-09-28T16:52:51.592Z,71.10
2018-09-28T16:55:20.748Z,70.70
2018-09-28T16:57:49.894Z,70.50
2018-09-28T17:00:18.913Z,73.50
2018-09-28T17:02:48.033Z,73.80
2018-09-28T17:05:17.113Z,75.90
2018-09-28T17:07:46.167Z,76.00
2018-09-28T17:10:15.326Z,77.80
2018-09-28T17:12:44.398Z,77.80
2018-09-28T17:15:13.527Z,79.60
2018-09-28T17:17:42.603Z,79.80
2018-09-28T17:20:11.684Z,80.90
2018-09-28T17:22:40.760Z,81.50
2018-09-28T17:25:09.844Z,81.80
2018-09-28T17:27:39.125Z,83.60
2018-09-28T17:30:08.272Z,81.50
2018-09-28T17:32:37.324Z,82.10
2018-09-28T17:35:06.525Z,80.40
2018-09-28T17:37:35.717Z,80.40
2018-09-28T17:40:04.814Z,80.80
2018-09-28T17:42:33.990Z,81.00
2018-09-28T17:45:03.106Z,83.00
2018-09-28T17:47:32.270Z,82.40
2018-09-28T17:50:01.451Z,83.80
2018-09-28T17:52:31.477Z,83.90
2018-09-28T17:55:00.555Z,85.60
2018-09-28T17:57:29.653Z,87.50
2018-09-28T17:59:58.759Z,87.10
2018-09-28T18:02:27.999Z,90.30
2018-09-28T18:04:57.455Z,90.60
2018-09-28T18:07:26.824Z,90.20
2018-09-28T18:09:55.882Z,91.20
2018-09-28T18:12:24.992Z,90.90
2018-09-28T18:14:54.104Z,90.70
2018-09-28T18:17:23.182Z,91.90
2018-09-28T18:19:52.298Z,92.30
2018-09-28T18:22:21.462Z,93.60
2018-09-28T18:24:50.555Z,94.50
2018-09-28T18:27:19.701Z,93.50
2018-09-28T18:29:49.000Z,94.10
2018-09-28T18:32:18.147Z,93.90
2018-09-28T18:34:47.308Z,94.90
2018-09-28T18:37:16.451Z,96.00
2018-09-28T18:39:45.592Z,94.90
2018-09-28T18:42:14.761Z,95.10
2018-09-28T18:44:43.814Z,94.90
2018-09-28T18:47:12.950Z,95.40
2018-09-28T18:49:42.059Z,95.30
2018-09-28T18:52:11.714Z,95.50
2018-09-28T18:54:40.815Z,95.60
2018-09-28T18:57:09.951Z,96.50
2018-09-28T18:59:39.129Z,96.60
2018-09-28T19:02:08.242Z,96.80
2018-09-28T19:04:38.213Z,97.60
2018-09-28T19:07:07.384Z,98.50
2018-09-28T19:09:36.944Z,99.30
2018-09-28T19:12:06.162Z,99.40
2018-09-28T19:14:35.304Z,98.20
2018-09-28T19:17:04.373Z,96.80
2018-09-28T19:19:33.522Z,95.40
2018-09-28T19:22:03.835Z,95.40
2018-09-28T19:24:32.994Z,94.60
2018-09-28T19:27:02.164Z,92.80
2018-09-28T19:29:31.760Z,92.60
2018-09-28T19:32:01.482Z,92.10
2018-09-28T19:34:31.086Z,92.20
2018-09-28T19:37:00.284Z,91.90
2018-09-28T19:39:29.412Z,92.00
2018-09-28T19:41:58.554Z,91.40
2018-09-28T19:44:27.690Z,90.60
2018-09-28T19:46:56.835Z,90.80
2018-09-28T19:49:25.966Z,90.50
2018-09-28T19:51:55.110Z,90.90
2018-09-28T19:54:24.215Z,90.50
2018-09-28T19:56:53.379Z,90.50
2018-09-28T19:59:22.496Z,90.50
2018-09-28T20:01:52.402Z,90.70
2018-09-28T20:04:21.562Z,91.10
2018-09-28T20:06:50.775Z,91.20
2018-09-28T20:09:19.976Z,91.30
2018-09-28T20:11:49.072Z,90.90
2018-09-28T20:14:18.162Z,90.90
2018-09-28T20:16:47.313Z,91.30
2018-09-28T20:19:17.342Z,92.40
2018-09-28T20:21:46.476Z,92.70
2018-09-28T20:24:15.625Z,92.10
2018-09-28T20:26:44.755Z,92.20
2018-09-28T20:29:13.850Z,92.10
2018-09-28T20:31:42.947Z,91.80
2018-09-28T20:34:12.354Z,91.50
2018-09-28T20:36:42.352Z,92.00
2018-09-28T20:39:13.030Z,92.20
2018-09-28T20:41:42.650Z,92.30
2018-09-28T20:44:11.797Z,92.10
2018-09-28T20:46:40.880Z,92.30
2018-09-28T20:49:10.000Z,92.50
2018-09-28T20:51:39.144Z,92.30
2018-09-28T20:54:08.292Z,92.70
2018-09-28T20:56:37.401Z,92.90
2018-09-28T20:59:06.540Z,93.00
2018-09-28T21:01:35.661Z,92.90
2018-09-28T21:04:04.797Z,92.80
2018-09-28T21:06:33.919Z,92.60
2018-09-28T21:09:03.179Z,92.70
2018-09-28T21:11:33.154Z,92.50
2018-09-28T21:14:02.433Z,92.60
2018-09-28T21:16:31.662Z,92.70
2018-09-28T21:19:00.857Z,92.20
2018-09-28T21:21:30.027Z,92.20
2018-09-28T21:23:59.134Z,92.10
2018-09-28T21:26:28.341Z,91.90
2018-09-28T21:28:57.658Z,91.80
2018-09-28T21:31:26.763Z,92.00
2018-09-28T21:33:55.933Z,92.10
2018-09-28T21:36:26.175Z,91.90
2018-09-28T21:38:55.371Z,91.90
2018-09-28T21:41:24.580Z,91.80
2018-09-28T21:43:53.847Z,92.20
2018-09-28T21:46:23.053Z,92.00
2018-09-28T21:48:52.241Z,92.20
2018-09-28T21:51:21.617Z,92.30
2018-09-28T21:53:50.701Z,92.20
2018-09-28T21:56:19.843Z,92.60
2018-09-28T21:58:48.953Z,92.30
2018-09-28T22:01:19.191Z,92.40
2018-09-28T22:03:49.642Z,93.00
2018-09-28T22:06:18.758Z,93.00
2018-09-28T22:08:47.851Z,93.20
2018-09-28T22:11:16.976Z,93.60
2018-09-28T22:13:46.080Z,93.80
2018-09-28T22:16:15.268Z,94.00
2018-09-28T22:18:44.389Z,94.30
2018-09-28T22:21:13.510Z,95.10
2018-09-28T22:23:42.591Z,95.50
2018-09-28T22:26:11.743Z,96.20
2018-09-28T22:28:40.861Z,96.80
2018-09-28T22:31:09.941Z,97.70
2018-09-28T22:33:39.063Z,98.10
2018-09-28T22:36:08.185Z,98.50
2018-09-28T22:38:37.728Z,98.90
2018-09-28T22:41:06.851Z,99.20
2018-09-28T22:43:35.947Z,99.50
2018-09-28T22:46:05.062Z,99.90
2018-09-28T22:48:34.744Z,99.90
2018-09-28T22:51:03.852Z,99.90
2018-09-28T22:53:32.969Z,99.90
2018-09-28T22:56:02.096Z,99.90
2018-09-28T22:58:31.161Z,99.90
2018-09-28T23:01:00.316Z,99.90
2018-09-28T23:03:30.064Z,99.90
2018-09-28T23:05:59.139Z,99.90
2018-09-28T23:08:28.210Z,99.90
2018-09-28T23:10:57.381Z,99.90
2018-09-28T23:13:26.471Z,99.90
2018-09-28T23:15:55.613Z,99.90
2018-09-28T23:18:24.692Z,99.90
2018-09-28T23:20:53.787Z,99.90
2018-09-28T23:23:22.905Z,99.90
2018-09-28T23:25:52.061Z,99.90
2018-09-28T23:28:21.163Z,99.90
2018-09-28T23:30:50.297Z,99.90
2018-09-28T23:33:19.399Z,99.90
2018-09-28T23:35:48.511Z,99.90
2018-09-28T23:38:17.635Z,99.90
2018-09-28T23:40:46.909Z,99.90
2018-09-28T23:43:16.022Z,99.90
2018-09-28T23:45:45.369Z,99.90
2018-09-28T23:48:14.461Z,99.90
2018-09-28T23:50:44.493Z,99.90
2018-09-28T23:53:13.589Z,99.90
2018-09-28T23:55:42.703Z,99.90
2018-09-28T23:58:11.883Z,99.90
